createdAt,value
2023-05-10T00:00:44.095Z,7.76
2023-05-10T00:01:44.445Z,7.7
2023-05-10T00:02:44.282Z,7.63
2023-05-10T00:03:44.309Z,7.92
2023-05-10T00:04:44.067Z,7.94
2023-05-10T00:05:44.238Z,7.9
2023-05-10T00:06:44.095Z,7.71
2023-05-10T00:07:44.310Z,7.57
2023-05-10T00:08:44.610Z,7.62
2023-05-10T00:09:44.266Z,7.96
2023-05-10T00:10:44.107Z,7.85
2023-05-10T00:11:44.137Z,7.66
2023-05-10T00:12:44.329Z,7.77
2023-05-10T00:13:44.162Z,7.76
2023-05-10T00:14:44.408Z,7.82
2023-05-10T00:15:44.243Z,7.51
2023-05-10T00:16:44.251Z,7.24
2023-05-10T00:17:44.235Z,7.3
2023-05-10T00:18:44.465Z,7.37
2023-05-10T00:19:44.451Z,7.41
2023-05-10T00:20:44.304Z,7.67
2023-05-10T00:21:44.295Z,7.75
2023-05-10T00:22:44.278Z,7.76
2023-05-10T00:23:44.535Z,7.74
2023-05-10T00:24:44.278Z,7.72
2023-05-10T00:25:44.351Z,7.67
2023-05-10T00:26:44.415Z,7.59
2023-05-10T00:27:44.371Z,7.39
2023-05-10T00:28:44.423Z,7.16
2023-05-10T00:29:44.427Z,7.15
2023-05-10T00:30:44.391Z,7.18
2023-05-10T00:31:44.638Z,7.33
2023-05-10T00:32:44.505Z,7.37
2023-05-10T00:33:44.524Z,7.37
2023-05-10T00:34:44.455Z,7.14
2023-05-10T00:35:44.486Z,7.1
2023-05-10T00:36:44.707Z,7.16
2023-05-10T00:37:44.531Z,7.19
2023-05-10T00:38:44.777Z,7.13
2023-05-10T00:39:44.564Z,6.85
2023-05-10T00:40:44.583Z,7.22
2023-05-10T00:41:44.817Z,7.32
2023-05-10T00:42:44.630Z,7.19
2023-05-10T00:43:44.660Z,7.28
2023-05-10T00:44:44.990Z,7.26
2023-05-10T00:45:45.358Z,7.22
2023-05-10T00:46:45.129Z,7.31
2023-05-10T00:47:44.771Z,7.29
2023-05-10T00:48:45.478Z,7.21
2023-05-10T00:49:45.769Z,7.18
2023-05-10T00:50:44.967Z,7.22
2023-05-10T00:51:45.177Z,7.25
2023-05-10T00:52:45.193Z,7.27
2023-05-10T00:53:46.425Z,7.28
2023-05-10T00:54:45.193Z,7.24
2023-05-10T00:55:45.088Z,7.28
2023-05-10T00:56:45.196Z,7.16
2023-05-10T00:57:45.165Z,7.22
2023-05-10T00:58:44.883Z,7.09
2023-05-10T00:59:44.956Z,7.07
2023-05-10T01:00:47.252Z,7.1
2023-05-10T01:01:45.427Z,7.15
2023-05-10T01:02:45.769Z,7.24
2023-05-10T01:03:45.227Z,7.21
2023-05-10T01:04:45.006Z,7.16
2023-05-10T01:05:45.153Z,7.2
2023-05-10T01:06:45.194Z,7.33
2023-05-10T01:07:45.168Z,7.32
2023-05-10T01:08:45.088Z,7.34
2023-05-10T01:09:45.626Z,7.26
2023-05-10T01:10:45.052Z,7.22
2023-05-10T01:11:45.534Z,7.12
2023-05-10T01:12:46.593Z,7.13
2023-05-10T01:13:56.361Z,7.15
2023-05-10T01:14:48.886Z,7.06
2023-05-10T01:15:48.201Z,6.95
2023-05-10T01:16:49.621Z,6.97
2023-05-10T01:17:49.137Z,7
2023-05-10T01:18:49.270Z,7.02
2023-05-10T01:19:48.337Z,6.47
2023-05-10T01:20:51.527Z,6.47
2023-05-10T01:21:58.274Z,6.75
2023-05-10T01:27:13.801Z,6.87
2023-05-10T01:29:19.791Z,6.69
2023-05-10T01:31:27.851Z,6.9
2023-05-10T01:32:28.660Z,6.89
2023-05-10T01:34:26.320Z,7.07
2023-05-10T01:35:28.023Z,6.92
2023-05-10T01:40:38.430Z,6.61
2023-05-10T01:46:51.297Z,6.62
2023-05-10T01:47:51.176Z,6.59
2023-05-10T01:49:50.835Z,6.48
2023-05-10T01:50:49.108Z,6.39
2023-05-10T01:51:51.633Z,6.45
2023-05-10T01:52:52.348Z,6.47
2023-05-10T01:53:50.819Z,6.46
2023-05-10T01:55:54.915Z,6.43
2023-05-10T01:56:57.412Z,6.42
2023-05-10T01:57:57.489Z,6.41
2023-05-10T01:58:54.342Z,6.36
2023-05-10T01:59:54.624Z,6.37
2023-05-10T02:00:54.602Z,6.45
2023-05-10T02:01:54.970Z,6.44
2023-05-10T02:02:54.776Z,6.5
2023-05-10T02:03:54.637Z,6.55
2023-05-10T02:04:55.369Z,6.69
2023-05-10T02:05:55.311Z,6.81
2023-05-10T02:06:55.103Z,6.82
2023-05-10T02:07:54.487Z,6.71
2023-05-10T02:08:54.475Z,6.58
2023-05-10T02:09:54.392Z,6.37
2023-05-10T02:10:55.643Z,6.28
2023-05-10T02:11:54.743Z,6.22
2023-05-10T02:12:54.299Z,6.29
2023-05-10T02:13:54.561Z,6.53
2023-05-10T02:14:54.353Z,6.52
2023-05-10T02:15:54.695Z,6.67
2023-05-10T02:16:54.657Z,6.78
2023-05-10T02:17:55.981Z,6.97
2023-05-10T02:18:54.480Z,6.89
2023-05-10T02:19:55.003Z,6.78
2023-05-10T02:20:55.097Z,6.51
2023-05-10T02:21:56.030Z,6.27
2023-05-10T02:22:55.630Z,6.31
2023-05-10T02:23:54.920Z,6.53
2023-05-10T02:24:55.984Z,6.58
2023-05-10T02:25:55.733Z,6.53
2023-05-10T02:26:55.334Z,6.48
2023-05-10T02:27:56.078Z,6.49
2023-05-10T02:28:55.275Z,6.68
2023-05-10T02:29:55.252Z,6.73
2023-05-10T02:30:55.046Z,6.79
2023-05-10T02:31:55.139Z,6.68
2023-05-10T02:32:54.498Z,6.62
2023-05-10T02:33:54.977Z,6.58
2023-05-10T02:34:55.481Z,6.63
2023-05-10T02:35:55.274Z,6.67
2023-05-10T02:36:55.737Z,6.79
2023-05-10T02:37:55.208Z,6.94
2023-05-10T02:38:54.606Z,6.94
2023-05-10T02:39:55.970Z,7.04
2023-05-10T02:40:55.058Z,7.12
2023-05-10T02:41:54.678Z,7.13
2023-05-10T02:42:56.039Z,7.07
2023-05-10T02:43:56.987Z,6.98
2023-05-10T02:44:57.428Z,6.87
2023-05-10T02:45:55.193Z,6.76
2023-05-10T02:46:54.504Z,6.73
2023-05-10T02:47:55.216Z,6.89
2023-05-10T02:48:54.920Z,7.12
2023-05-10T02:49:54.771Z,7.16
2023-05-10T02:50:56.828Z,7.19
2023-05-10T02:51:58.908Z,7.15
2023-05-10T02:53:58.205Z,6.95
2023-05-10T02:54:57.678Z,6.73
2023-05-10T02:55:58.487Z,6.49
2023-05-10T02:57:01.182Z,6.37
2023-05-10T02:57:59.134Z,6.11
2023-05-10T02:58:57.475Z,5.93
2023-05-10T02:59:57.506Z,6.13
2023-05-10T03:00:57.481Z,6.3
2023-05-10T03:01:57.495Z,6.38
2023-05-10T03:02:57.777Z,6.44
2023-05-10T03:03:57.492Z,6.63
2023-05-10T03:04:57.657Z,6.68
2023-05-10T03:05:57.581Z,6.62
2023-05-10T03:06:57.562Z,6.78
2023-05-10T03:07:57.659Z,6.74
2023-05-10T03:08:57.786Z,6.77
2023-05-10T03:09:57.878Z,6.83
2023-05-10T03:16:23.201Z,7.32
2023-05-10T03:19:28.463Z,7.61
2023-05-10T03:21:29.482Z,7.95
2023-05-10T03:22:31.466Z,7.86
2023-05-10T03:23:28.472Z,7.96
2023-05-10T03:24:28.602Z,7.96
2023-05-10T03:25:29.008Z,8.01
2023-05-10T03:26:29.092Z,8.02
2023-05-10T03:27:28.372Z,7.91
2023-05-10T03:28:28.025Z,7.96
2023-05-10T03:29:28.749Z,7.94
2023-05-10T03:30:28.423Z,7.92
2023-05-10T03:31:28.059Z,8.04
2023-05-10T03:32:29.834Z,8.13
2023-05-10T03:33:27.878Z,8.17
2023-05-10T03:34:30.709Z,8.17
2023-05-10T03:35:27.889Z,8.24
2023-05-10T03:36:27.926Z,8.37
2023-05-10T03:37:27.929Z,8.48
2023-05-10T03:38:30.269Z,8.57
2023-05-10T03:39:27.978Z,8.58
2023-05-10T03:40:28.493Z,8.59
2023-05-10T03:41:27.976Z,8.61
2023-05-10T03:42:28.003Z,8.66
2023-05-10T03:43:28.288Z,8.65
2023-05-10T03:44:28.030Z,8.6
2023-05-10T03:45:28.211Z,8.74
2023-05-10T03:46:28.345Z,8.72
2023-05-10T03:47:28.263Z,8.66
2023-05-10T03:48:28.117Z,8.78
2023-05-10T03:49:28.107Z,8.89
2023-05-10T03:50:28.216Z,8.91
2023-05-10T03:51:28.634Z,8.99
2023-05-10T03:52:28.158Z,9.06
2023-05-10T03:53:28.231Z,9.05
2023-05-10T03:54:28.185Z,9.07
2023-05-10T03:55:28.221Z,9.14
2023-05-10T03:56:28.222Z,9.13
2023-05-10T03:57:28.288Z,9.2
2023-05-10T03:58:28.280Z,9.24
2023-05-10T03:59:28.286Z,9.29
2023-05-10T04:00:28.285Z,9.29
2023-05-10T04:01:28.536Z,9.35
2023-05-10T04:02:28.464Z,9.41
2023-05-10T04:03:28.403Z,9.4
2023-05-10T04:04:28.377Z,9.47
2023-05-10T04:05:28.578Z,9.5
2023-05-10T04:06:28.416Z,9.51
2023-05-10T04:07:28.594Z,9.61
2023-05-10T04:08:28.427Z,9.57
2023-05-10T04:09:28.444Z,9.6
2023-05-10T04:10:28.453Z,9.63
2023-05-10T04:11:28.474Z,9.74
2023-05-10T04:12:28.483Z,9.76
2023-05-10T04:13:28.865Z,9.75
2023-05-10T04:14:28.849Z,9.79
2023-05-10T04:15:28.672Z,9.91
2023-05-10T04:16:28.780Z,9.95
2023-05-10T04:17:28.782Z,9.97
2023-05-10T04:18:28.976Z,9.91
2023-05-10T04:19:31.556Z,9.91
2023-05-10T04:20:28.624Z,9.98
2023-05-10T04:21:28.643Z,9.93
2023-05-10T04:22:28.695Z,9.91
2023-05-10T04:23:28.699Z,9.9
2023-05-10T04:24:28.691Z,9.94
2023-05-10T04:25:28.754Z,9.97
2023-05-10T04:26:28.716Z,9.96
2023-05-10T04:27:28.896Z,9.99
2023-05-10T04:28:28.744Z,10.02
2023-05-10T04:29:28.765Z,10.02
2023-05-10T04:30:28.783Z,10.11
2023-05-10T04:31:29.037Z,10.04
2023-05-10T04:32:28.826Z,10.04
2023-05-10T04:33:28.863Z,10.07
2023-05-10T04:34:28.852Z,10.02
2023-05-10T04:35:29.113Z,9.99
2023-05-10T04:36:28.861Z,10.1
2023-05-10T04:37:28.888Z,10.17
2023-05-10T04:38:28.899Z,10.15
2023-05-10T04:39:28.918Z,10.13
2023-05-10T04:40:28.965Z,10.17
2023-05-10T04:41:29.142Z,10.21
2023-05-10T04:42:28.971Z,10.22
2023-05-10T04:43:28.978Z,10.23
2023-05-10T04:44:29.232Z,10.23
2023-05-10T04:45:29.241Z,10.28
2023-05-10T04:46:29.144Z,10.32
2023-05-10T04:47:32.188Z,10.41
2023-05-10T04:48:32.184Z,10.4
2023-05-10T04:49:31.956Z,10.36
2023-05-10T04:50:32.316Z,10.4
2023-05-10T04:51:31.979Z,10.39
2023-05-10T04:52:32.232Z,10.47
2023-05-10T04:53:32.002Z,10.51
2023-05-10T04:54:32.021Z,10.56
2023-05-10T04:55:32.278Z,10.56
2023-05-10T04:56:32.074Z,10.56
2023-05-10T04:57:32.046Z,10.59
2023-05-10T04:58:32.285Z,10.7
2023-05-10T04:59:32.086Z,10.68
2023-05-10T05:00:32.149Z,10.75
2023-05-10T05:01:32.176Z,10.74
2023-05-10T05:02:32.210Z,10.83
2023-05-10T05:03:32.177Z,10.91
2023-05-10T05:04:32.160Z,10.96
2023-05-10T05:05:32.241Z,11.03
2023-05-10T05:06:32.232Z,11.1
2023-05-10T05:07:32.192Z,11.11
2023-05-10T05:08:32.201Z,11.14
2023-05-10T05:09:32.237Z,11.16
2023-05-10T05:10:32.288Z,11.26
2023-05-10T05:11:32.260Z,11.26
2023-05-10T05:12:32.272Z,11.31
2023-05-10T05:13:32.368Z,11.34
2023-05-10T05:14:32.296Z,11.33
2023-05-10T05:15:32.334Z,11.36
2023-05-10T05:16:32.625Z,11.46
2023-05-10T05:17:32.379Z,11.54
2023-05-10T05:18:32.412Z,11.46
2023-05-10T05:19:32.541Z,11.64
2023-05-10T05:20:35.364Z,11.67
2023-05-10T05:21:32.546Z,11.75
2023-05-10T05:22:32.491Z,11.82
2023-05-10T05:23:32.427Z,11.81
2023-05-10T05:24:35.759Z,11.87
2023-05-10T05:25:32.608Z,11.95
2023-05-10T05:26:32.454Z,11.9
2023-05-10T05:27:32.699Z,11.94
2023-05-10T05:28:32.442Z,12.1
2023-05-10T05:29:32.616Z,12.38
2023-05-10T05:30:32.463Z,12.28
2023-05-10T05:31:32.590Z,12.32
2023-05-10T05:32:32.540Z,12.48
2023-05-10T05:33:32.733Z,12.52
2023-05-10T05:34:32.724Z,12.58
2023-05-10T05:35:32.569Z,12.66
2023-05-10T05:36:32.583Z,12.81
2023-05-10T05:37:32.600Z,12.68
2023-05-10T05:38:32.606Z,12.72
2023-05-10T05:39:32.591Z,12.69
2023-05-10T05:40:32.692Z,12.63
2023-05-10T05:41:32.620Z,12.71
2023-05-10T05:42:32.955Z,12.85
2023-05-10T05:43:32.882Z,12.8
2023-05-10T05:44:32.689Z,12.75
2023-05-10T05:45:32.790Z,12.71
2023-05-10T05:46:33.107Z,12.81
2023-05-10T05:47:32.916Z,12.89
2023-05-10T05:48:32.897Z,12.89
2023-05-10T05:49:33.232Z,12.95
2023-05-10T05:50:32.951Z,13.02
2023-05-10T05:51:32.764Z,13.02
2023-05-10T05:52:32.974Z,13.03
2023-05-10T05:53:32.794Z,13.23
2023-05-10T05:54:32.815Z,13.28
2023-05-10T05:55:32.819Z,13.34
2023-05-10T05:56:32.824Z,13.53
2023-05-10T05:57:33.038Z,13.52
2023-05-10T05:58:32.851Z,13.53
2023-05-10T05:59:32.843Z,13.5
2023-05-10T06:00:32.926Z,13.48
2023-05-10T06:01:32.965Z,13.63
2023-05-10T06:02:33.065Z,13.9
2023-05-10T06:03:32.982Z,13.88
2023-05-10T06:04:33.083Z,13.82
2023-05-10T06:05:32.958Z,13.99
2023-05-10T06:06:32.966Z,14.2
2023-05-10T06:07:33.247Z,14.14
2023-05-10T06:08:33.290Z,14.07
2023-05-10T06:09:33.000Z,14.08
2023-05-10T06:10:33.055Z,14.21
2023-05-10T06:11:33.084Z,14.2
2023-05-10T06:12:33.035Z,14.18
2023-05-10T06:13:33.307Z,14.22
2023-05-10T06:14:33.103Z,14.33
2023-05-10T06:15:33.310Z,14.35
2023-05-10T06:16:33.223Z,14.28
2023-05-10T06:17:33.177Z,14.36
2023-05-10T06:18:33.165Z,14.31
2023-05-10T06:19:33.120Z,14.5
2023-05-10T06:20:33.169Z,14.4
2023-05-10T06:21:33.193Z,14.36
2023-05-10T06:22:33.160Z,14.34
2023-05-10T06:23:33.236Z,14.41
2023-05-10T06:24:33.216Z,14.37
2023-05-10T06:25:33.275Z,14.69
2023-05-10T06:26:33.804Z,14.56
2023-05-10T06:27:33.242Z,14.7
2023-05-10T06:28:33.282Z,14.6
2023-05-10T06:29:33.448Z,14.78
2023-05-10T06:30:33.702Z,14.91
2023-05-10T06:31:33.351Z,14.62
2023-05-10T06:32:33.318Z,14.8
2023-05-10T06:33:33.633Z,14.82
2023-05-10T06:34:33.317Z,14.84
2023-05-10T06:35:33.362Z,15.04
2023-05-10T06:36:33.356Z,15.02
2023-05-10T06:37:33.420Z,14.79
2023-05-10T06:38:33.388Z,14.74
2023-05-10T06:39:33.403Z,14.89
2023-05-10T06:40:33.438Z,15.07
2023-05-10T06:41:33.459Z,15.2
2023-05-10T06:42:33.480Z,14.87
2023-05-10T06:43:33.464Z,14.78
2023-05-10T06:44:33.464Z,14.82
2023-05-10T06:45:33.475Z,15.19
2023-05-10T06:46:33.645Z,15.35
2023-05-10T06:47:34.734Z,15.3
2023-05-10T06:48:33.516Z,15.24
2023-05-10T06:49:33.515Z,15.17
2023-05-10T06:50:34.085Z,15.18
2023-05-10T06:51:33.543Z,15
2023-05-10T06:52:33.567Z,15.04
2023-05-10T06:53:33.576Z,14.92
2023-05-10T06:54:33.588Z,15.03
2023-05-10T06:55:33.624Z,14.96
2023-05-10T06:56:33.639Z,14.91
2023-05-10T06:57:33.640Z,15.04
2023-05-10T06:58:33.752Z,15.27
2023-05-10T06:59:33.798Z,15.43
2023-05-10T07:00:33.982Z,15.36
2023-05-10T07:01:33.716Z,15.4
2023-05-10T07:02:33.856Z,15.36
2023-05-10T07:03:33.737Z,15.5
2023-05-10T07:04:33.762Z,15.72
2023-05-10T07:05:33.884Z,15.85
2023-05-10T07:06:34.118Z,15.88
2023-05-10T07:07:33.742Z,15.38
2023-05-10T07:08:34.512Z,15.19
2023-05-10T07:09:33.788Z,15.36
2023-05-10T07:10:34.282Z,15.79
2023-05-10T07:11:33.844Z,15.7
2023-05-10T07:12:33.885Z,15.33
2023-05-10T07:13:34.130Z,15.09
2023-05-10T07:14:33.832Z,15.16
2023-05-10T07:15:33.905Z,15.22
2023-05-10T07:16:33.876Z,15.63
2023-05-10T07:17:33.994Z,15.55
2023-05-10T07:18:34.003Z,15.66
2023-05-10T07:19:33.943Z,15.79
2023-05-10T07:20:33.929Z,15.67
2023-05-10T07:21:34.027Z,15.88
2023-05-10T07:22:33.971Z,16.05
2023-05-10T07:23:34.198Z,16.02
2023-05-10T07:24:34.211Z,16.15
2023-05-10T07:25:34.047Z,16.05
2023-05-10T07:26:34.064Z,15.89
2023-05-10T07:27:34.047Z,15.81
2023-05-10T07:28:34.071Z,15.66
2023-05-10T07:29:34.091Z,15.69
2023-05-10T07:30:34.157Z,16.12
2023-05-10T07:31:34.147Z,16.13
2023-05-10T07:32:34.212Z,16.34
2023-05-10T07:33:34.422Z,16.72
2023-05-10T07:34:34.124Z,16.39
2023-05-10T07:35:34.143Z,16.15
2023-05-10T07:36:34.186Z,15.91
2023-05-10T07:37:34.185Z,15.71
2023-05-10T07:38:34.195Z,15.79
2023-05-10T07:39:35.318Z,16.1
2023-05-10T07:40:34.416Z,16.12
2023-05-10T07:41:35.918Z,16.31
2023-05-10T07:42:34.220Z,16.14
2023-05-10T07:43:34.258Z,16
2023-05-10T07:44:34.269Z,15.98
2023-05-10T07:45:34.465Z,16.04
2023-05-10T07:46:34.429Z,15.74
2023-05-10T07:47:34.295Z,15.76
2023-05-10T07:48:34.292Z,15.67
2023-05-10T07:49:34.297Z,15.53
2023-05-10T07:50:34.326Z,15.57
2023-05-10T07:51:34.475Z,16.07
2023-05-10T07:52:34.368Z,16.14
2023-05-10T07:53:34.400Z,16.21
2023-05-10T07:54:34.395Z,16.68
2023-05-10T07:55:34.430Z,16.44
2023-05-10T07:56:34.431Z,16.52
2023-05-10T07:57:34.870Z,16.29
2023-05-10T07:58:34.437Z,16.03
2023-05-10T07:59:34.477Z,15.87
2023-05-10T08:00:34.664Z,15.84
2023-05-10T08:01:35.050Z,16.06
2023-05-10T08:02:36.093Z,16.23
2023-05-10T08:03:34.626Z,16.16
2023-05-10T08:04:34.558Z,16.3
2023-05-10T08:05:35.773Z,16.19
2023-05-10T08:06:34.545Z,15.82
2023-05-10T08:07:34.814Z,15.59
2023-05-10T08:08:34.910Z,15.68
2023-05-10T08:09:34.593Z,15.99
2023-05-10T08:10:34.592Z,16.11
2023-05-10T08:11:35.273Z,15.85
2023-05-10T08:12:34.630Z,15.56
2023-05-10T08:13:34.734Z,15.46
2023-05-10T08:14:34.623Z,15.36
2023-05-10T08:15:34.705Z,15.3
2023-05-10T08:16:34.673Z,15.33
2023-05-10T08:17:34.738Z,15.33
2023-05-10T08:18:34.745Z,15.39
2023-05-10T08:19:34.748Z,15.62
2023-05-10T08:20:34.735Z,15.76
2023-05-10T08:21:35.217Z,15.9
2023-05-10T08:22:34.767Z,16.28
2023-05-10T08:23:34.784Z,16.29
2023-05-10T08:24:34.817Z,16.17
2023-05-10T08:25:34.798Z,16.48
2023-05-10T08:26:34.860Z,16.87
2023-05-10T08:27:34.838Z,16.84
2023-05-10T08:28:34.829Z,16.95
2023-05-10T08:29:46.283Z,17.09
2023-05-10T08:30:36.796Z,16.87
2023-05-10T08:31:36.748Z,16.68
2023-05-10T08:32:36.875Z,16.91
2023-05-10T08:33:36.720Z,17.17
2023-05-10T08:34:36.741Z,17.3
2023-05-10T08:35:36.954Z,17.07
2023-05-10T08:36:36.832Z,16.64
2023-05-10T08:37:36.868Z,16.91
2023-05-10T08:38:37.787Z,16.8
2023-05-10T08:39:37.104Z,16.51
2023-05-10T08:40:42.205Z,16.75
2023-05-10T08:41:39.944Z,17.3
2023-05-10T08:42:40.850Z,17.51
2023-05-10T08:43:39.740Z,16.83
2023-05-10T08:44:39.173Z,16.67
2023-05-10T08:45:40.506Z,16.98
2023-05-10T08:46:41.842Z,17.17
2023-05-10T08:47:39.517Z,17.71
2023-05-10T08:48:39.670Z,17.6
2023-05-10T08:49:39.614Z,17.2
2023-05-10T08:50:40.349Z,17.23
2023-05-10T08:51:41.911Z,17.04
2023-05-10T08:52:41.225Z,17.25
2023-05-10T08:53:40.514Z,17.39
2023-05-10T08:54:40.853Z,17.66
2023-05-10T08:55:41.200Z,17.86
2023-05-10T08:56:40.868Z,17.63
2023-05-10T08:57:40.562Z,17.75
2023-05-10T08:58:40.606Z,17.38
2023-05-10T08:59:40.693Z,17.36
2023-05-10T09:00:40.843Z,17.24
2023-05-10T09:01:41.227Z,17.46
2023-05-10T09:02:41.482Z,17.71
2023-05-10T09:03:40.945Z,18.08
2023-05-10T09:04:40.918Z,17.81
2023-05-10T09:05:40.665Z,17.49
2023-05-10T09:06:40.755Z,17.59
2023-05-10T09:07:41.112Z,17.32
2023-05-10T09:08:42.056Z,17.1
2023-05-10T09:09:40.970Z,16.66
2023-05-10T09:10:42.020Z,17
2023-05-10T09:11:41.151Z,17.41
2023-05-10T09:12:41.170Z,17.13
2023-05-10T09:13:40.997Z,17.14
2023-05-10T09:14:41.099Z,17.49
2023-05-10T09:15:40.971Z,17.22
2023-05-10T09:16:41.235Z,17.08
2023-05-10T09:17:41.417Z,17.15
2023-05-10T09:18:40.904Z,17.31
2023-05-10T09:19:40.876Z,17.3
2023-05-10T09:20:41.075Z,17.21
2023-05-10T09:21:40.877Z,17.47
2023-05-10T09:22:40.882Z,17.82
2023-05-10T09:23:44.699Z,17.7
2023-05-10T09:24:43.864Z,17.78
2023-05-10T09:25:42.523Z,17.58
2023-05-10T09:26:48.964Z,17.4
2023-05-10T09:27:46.733Z,17.4
2023-05-10T09:28:52.792Z,17.53
2023-05-10T09:29:49.603Z,17.58
2023-05-10T09:30:54.052Z,17.34
2023-05-10T09:31:51.808Z,17.65
2023-05-10T09:32:51.447Z,17.48
2023-05-10T09:33:51.411Z,17.46
2023-05-10T09:34:50.959Z,17.58
2023-05-10T09:35:52.391Z,17.2
2023-05-10T09:36:51.977Z,17.09
2023-05-10T09:37:52.196Z,17.06
2023-05-10T09:38:52.307Z,17.02
2023-05-10T09:39:55.141Z,17.42
2023-05-10T09:40:53.344Z,17.53
2023-05-10T09:41:51.870Z,17.33
2023-05-10T09:42:53.019Z,18.04
2023-05-10T09:43:56.386Z,17.88
2023-05-10T09:44:53.131Z,18.14
2023-05-10T09:45:53.149Z,17.83
2023-05-10T09:46:53.441Z,17.9
2023-05-10T09:47:53.471Z,17.81
2023-05-10T09:48:53.262Z,17.78
2023-05-10T09:49:53.927Z,17.7
2023-05-10T09:51:01.854Z,17.65
2023-05-10T09:52:03.786Z,17.52
2023-05-10T09:52:56.613Z,17.28
2023-05-10T09:54:56.056Z,17.91
2023-05-10T09:55:55.775Z,17.64
2023-05-10T09:56:55.902Z,17.66
2023-05-10T10:00:01.114Z,18.03
2023-05-10T10:01:00.966Z,17.74
2023-05-10T10:02:01.447Z,16.97
2023-05-10T10:03:01.255Z,16.88
2023-05-10T10:04:03.388Z,16.87
2023-05-10T10:05:02.082Z,17.33
2023-05-10T10:06:01.124Z,17.17
2023-05-10T10:07:02.090Z,17.11
2023-05-10T10:08:01.837Z,17.2
2023-05-10T10:09:01.081Z,17.34
2023-05-10T10:10:01.312Z,17.58
2023-05-10T10:11:01.563Z,17.4
2023-05-10T10:12:01.897Z,17.86
2023-05-10T10:13:01.497Z,18.07
2023-05-10T10:14:01.533Z,18.21
2023-05-10T10:15:01.581Z,17.89
2023-05-10T10:16:01.415Z,17.94
2023-05-10T10:18:01.662Z,18.73
2023-05-10T10:19:01.660Z,18.07
2023-05-10T10:20:01.421Z,17.93
2023-05-10T10:21:01.329Z,17.29
2023-05-10T10:22:01.324Z,17.48
2023-05-10T10:23:01.371Z,17.18
2023-05-10T10:24:01.963Z,17.53
2023-05-10T10:25:01.540Z,17.78
2023-05-10T10:26:02.358Z,18.6
2023-05-10T10:34:29.657Z,17.74
2023-05-10T10:35:21.824Z,17.84
2023-05-10T10:36:21.427Z,17.78
2023-05-10T10:37:21.415Z,18.1
2023-05-10T10:38:21.563Z,18.05
2023-05-10T10:39:22.025Z,18.29
2023-05-10T10:40:24.961Z,18.18
2023-05-10T10:41:28.253Z,18.26
2023-05-10T10:43:29.521Z,17.84
2023-05-10T10:45:26.562Z,17.53
2023-05-10T10:46:26.556Z,17.39
2023-05-10T10:47:29.409Z,17.3
2023-05-10T10:48:27.185Z,17.59
2023-05-10T10:49:27.193Z,17.66
2023-05-10T10:50:26.869Z,17.32
2023-05-10T10:51:29.595Z,17.22
2023-05-10T10:52:36.436Z,17.13
2023-05-10T10:53:28.497Z,17.26
2023-05-10T10:54:28.656Z,17.56
2023-05-10T10:55:27.920Z,17.44
2023-05-10T10:56:27.944Z,17.46
2023-05-10T10:57:28.495Z,17.48
2023-05-10T10:58:31.567Z,17.71
2023-05-10T10:59:28.375Z,17.79
2023-05-10T11:00:32.359Z,17.74
2023-05-10T11:01:33.770Z,18.63
2023-05-10T11:02:33.905Z,17.7
2023-05-10T11:03:30.430Z,17.53
2023-05-10T11:06:36.380Z,18.42
2023-05-10T11:07:35.155Z,18.22
2023-05-10T11:08:42.421Z,18.45
2023-05-10T11:09:41.769Z,18.29
2023-05-10T11:10:39.250Z,18.39
2023-05-10T11:13:50.074Z,18.26
2023-05-10T11:15:49.720Z,17.76
2023-05-10T11:16:49.541Z,18.03
2023-05-10T11:17:49.815Z,17.92
2023-05-10T11:20:59.726Z,17.97
2023-05-10T11:22:56.690Z,17.93
2023-05-10T11:23:57.603Z,18.17
2023-05-10T11:24:57.224Z,18.68
2023-05-10T11:25:57.067Z,18.46
2023-05-10T11:26:57.097Z,18.42
2023-05-10T11:27:56.817Z,19.16
2023-05-10T11:28:56.918Z,19.33
2023-05-10T11:29:56.931Z,19.39
2023-05-10T11:30:57.674Z,19.59
2023-05-10T11:31:58.246Z,19.32
2023-05-10T11:32:57.620Z,19.35
2023-05-10T11:33:58.591Z,18.93
2023-05-10T11:34:57.445Z,19.06
2023-05-10T11:35:57.464Z,18.61
2023-05-10T11:36:57.865Z,19
2023-05-10T11:37:57.466Z,19.26
2023-05-10T11:38:58.161Z,19.56
2023-05-10T11:39:57.732Z,18.77
2023-05-10T11:40:57.520Z,18.83
2023-05-10T11:41:57.796Z,19.05
2023-05-10T11:42:57.803Z,19.28
2023-05-10T11:43:57.969Z,18.59
2023-05-10T11:44:57.776Z,18.76
2023-05-10T11:45:57.658Z,19.09
2023-05-10T11:46:59.459Z,18.8
2023-05-10T11:47:58.464Z,18.78
2023-05-10T11:48:59.874Z,18.49
2023-05-10T11:49:58.016Z,19.01
2023-05-10T11:50:58.015Z,19.13
2023-05-10T11:52:06.816Z,18.81
2023-05-10T11:52:58.500Z,18.24
2023-05-10T11:53:58.735Z,18.41
2023-05-10T11:54:58.567Z,18.85
2023-05-10T11:56:10.861Z,18.88
2023-05-10T11:57:02.810Z,19.1
2023-05-10T11:58:02.986Z,19.04
2023-05-10T11:59:02.638Z,19.17
2023-05-10T12:00:02.791Z,18.9
2023-05-10T12:01:03.429Z,18.84
2023-05-10T12:02:02.992Z,18.85
2023-05-10T12:03:03.277Z,18.89
2023-05-10T12:04:03.244Z,18.8
2023-05-10T12:05:03.699Z,18.45
2023-05-10T12:06:03.476Z,18.59
2023-05-10T12:07:03.140Z,18.49
2023-05-10T12:08:12.268Z,18.38
2023-05-10T12:09:08.202Z,18.28
2023-05-10T12:10:08.918Z,18.09
2023-05-10T12:11:07.306Z,17.89
2023-05-10T12:12:05.916Z,17.97
2023-05-10T12:13:05.596Z,17.99
2023-05-10T12:14:05.721Z,18.26
2023-05-10T12:15:06.854Z,18.36
2023-05-10T12:16:15.219Z,18.16
2023-05-10T12:17:07.087Z,18.34
2023-05-10T12:18:09.001Z,18.13
2023-05-10T12:19:07.193Z,18.36
2023-05-10T12:21:07.447Z,18.41
2023-05-10T12:22:07.536Z,18.6
2023-05-10T12:23:09.643Z,19.04
2023-05-10T12:24:08.183Z,19.15
2023-05-10T12:25:09.218Z,19.39
2023-05-10T12:26:10.380Z,19.6
2023-05-10T12:27:09.423Z,19.69
2023-05-10T12:28:08.957Z,19.31
2023-05-10T12:29:17.010Z,19.62
2023-05-10T12:30:09.337Z,19.38
2023-05-10T12:31:09.136Z,19.31
2023-05-10T12:32:08.797Z,19.08
2023-05-10T12:33:10.253Z,18.86
2023-05-10T12:34:08.826Z,18.83
2023-05-10T12:35:09.090Z,18.23
2023-05-10T12:36:09.570Z,17.97
2023-05-10T12:37:08.862Z,17.99
2023-05-10T12:39:11.894Z,18
2023-05-10T12:40:12.218Z,18.54
2023-05-10T12:41:13.668Z,19.08
2023-05-10T12:42:12.177Z,19.02
2023-05-10T12:43:12.065Z,19.03
2023-05-10T12:44:12.062Z,18.72
2023-05-10T12:45:12.530Z,18.37
2023-05-10T12:46:13.583Z,18.29
2023-05-10T12:47:12.093Z,18.6
2023-05-10T12:48:12.435Z,18.83
2023-05-10T12:49:12.152Z,19.12
2023-05-10T12:50:12.234Z,19.04
2023-05-10T12:51:12.124Z,18.78
2023-05-10T12:52:12.195Z,18.38
2023-05-10T12:53:12.189Z,18.59
2023-05-10T12:54:12.418Z,18.78
2023-05-10T12:55:12.171Z,18.73
2023-05-10T12:56:12.241Z,18.48
2023-05-10T12:57:12.231Z,18.53
2023-05-10T12:58:15.822Z,18.12
2023-05-10T12:59:12.717Z,18.15
2023-05-10T13:00:13.686Z,18.24
2023-05-10T13:01:12.788Z,18.34
2023-05-10T13:02:13.031Z,18.85
2023-05-10T13:03:12.876Z,18.96
2023-05-10T13:04:12.872Z,19.02
2023-05-10T13:05:13.180Z,18.6
2023-05-10T13:06:13.792Z,18.53
2023-05-10T13:07:12.831Z,18.38
2023-05-10T13:08:13.182Z,18.27
2023-05-10T13:09:12.874Z,18.23
2023-05-10T13:10:12.937Z,18.19
2023-05-10T13:11:13.222Z,18.13
2023-05-10T13:12:12.928Z,18.14
2023-05-10T13:13:12.984Z,18.26
2023-05-10T13:14:13.001Z,18.32
2023-05-10T13:15:12.993Z,18.19
2023-05-10T13:16:13.084Z,18.2
2023-05-10T13:17:13.076Z,17.84
2023-05-10T13:18:13.156Z,18.38
2023-05-10T13:19:13.874Z,18.92
2023-05-10T13:20:13.127Z,19.12
2023-05-10T13:21:13.289Z,18.56
2023-05-10T13:22:13.110Z,18.37
2023-05-10T13:23:13.239Z,18.65
2023-05-10T13:24:13.358Z,18.48
2023-05-10T13:25:13.412Z,18.33
2023-05-10T13:26:13.145Z,18.25
2023-05-10T13:27:13.204Z,18.96
2023-05-10T13:28:13.213Z,19.41
2023-05-10T13:29:13.241Z,20.13
2023-05-10T13:30:13.691Z,20.01
2023-05-10T13:31:13.196Z,20.41
2023-05-10T13:32:13.267Z,20.4
2023-05-10T13:33:13.255Z,20.72
2023-05-10T13:34:13.345Z,20.69
2023-05-10T13:35:13.348Z,20.55
2023-05-10T13:36:13.346Z,20.03
2023-05-10T13:37:13.392Z,19.47
2023-05-10T13:38:13.682Z,19.59
2023-05-10T13:39:13.458Z,19.32
2023-05-10T13:40:13.501Z,19.28
2023-05-10T13:41:13.719Z,18.9
2023-05-10T13:42:13.487Z,19.18
2023-05-10T13:43:13.690Z,19.54
2023-05-10T13:44:14.243Z,19.52
2023-05-10T13:45:13.467Z,19.54
2023-05-10T13:46:13.770Z,19.7
2023-05-10T13:47:13.797Z,19.37
2023-05-10T13:48:13.920Z,18.87
2023-05-10T13:49:13.533Z,18.86
2023-05-10T13:50:13.577Z,18.65
2023-05-10T13:51:13.570Z,18.58
2023-05-10T13:52:13.586Z,18.59
2023-05-10T13:53:13.595Z,18.79
2023-05-10T13:54:13.874Z,18.8
2023-05-10T13:57:21.355Z,18.78
2023-05-10T13:58:20.800Z,18.74
2023-05-10T13:59:20.750Z,18.83